sensor_id;sensor_type;location;lat;lon;timestamp;temperature;humidity
20740;DHT22;10530;49.968;19.844;2023-02-13T00:00:56;1.60;99.90
20740;DHT22;10530;49.968;19.844;2023-02-13T00:05:59;1.60;99.90
20740;DHT22;10530;49.968;19.844;2023-02-13T00:11:02;1.60;99.90
20740;DHT22;10530;49.968;19.844;2023-02-13T00:16:05;1.70;99.90
20740;DHT22;10530;49.968;19.844;2023-02-13T00:21:11;1.60;99.90
20740;DHT22;10530;49.968;19.844;2023-02-13T00:26:15;1.60;99.90
20740;DHT22;10530;49.968;19.844;2023-02-13T00:31:20;1.70;99.90
20740;DHT22;10530;49.968;19.844;2023-02-13T00:36:23;1.80;99.90
20740;DHT22;10530;49.968;19.844;2023-02-13T00:41:26;1.80;99.90
20740;DHT22;10530;49.968;19.844;2023-02-13T00:46:29;1.80;99.90
20740;DHT22;10530;49.968;19.844;2023-02-13T00:51:32;1.80;99.90
20740;DHT22;10530;49.968;19.844;2023-02-13T00:56:35;1.60;99.90
20740;DHT22;10530;49.968;19.844;2023-02-13T01:01:38;1.80;99.90
20740;DHT22;10530;49.968;19.844;2023-02-13T01:06:40;1.80;99.90
20740;DHT22;10530;49.968;19.844;2023-02-13T01:11:43;1.80;99.90
20740;DHT22;10530;49.968;19.844;2023-02-13T01:16:46;1.80;99.90
20740;DHT22;10530;49.968;19.844;2023-02-13T01:21:48;1.80;99.90
20740;DHT22;10530;49.968;19.844;2023-02-13T01:26:53;1.80;99.90
20740;DHT22;10530;49.968;19.844;2023-02-13T01:31:55;1.80;99.90
20740;DHT22;10530;49.968;19.844;2023-02-13T01:37:02;1.90;99.90
20740;DHT22;10530;49.968;19.844;2023-02-13T01:42:15;1.90;99.90
20740;DHT22;10530;49.968;19.844;2023-02-13T01:47:26;1.90;99.90
20740;DHT22;10530;49.968;19.844;2023-02-13T01:52:31;2.00;99.90
20740;DHT22;10530;49.968;19.844;2023-02-13T01:57:37;1.90;99.90
20740;DHT22;10530;49.968;19.844;2023-02-13T02:02:45;1.90;99.90
20740;DHT22;10530;49.968;19.844;2023-02-13T02:07:53;2.00;99.90
20740;DHT22;10530;49.968;19.844;2023-02-13T02:18:39;2.10;99.90
20740;DHT22;10530;49.968;19.844;2023-02-13T02:24:34;2.00;99.90
20740;DHT22;10530;49.968;19.844;2023-02-13T02:51:24;2.20;99.90
20740;DHT22;10530;49.968;19.844;2023-02-13T02:56:34;2.20;99.90
20740;DHT22;10530;49.968;19.844;2023-02-13T03:01:39;2.20;99.90
20740;DHT22;10530;49.968;19.844;2023-02-13T03:07:06;2.10;99.90
20740;DHT22;10530;49.968;19.844;2023-02-13T03:12:11;2.10;99.90
20740;DHT22;10530;49.968;19.844;2023-02-13T03:17:33;2.10;99.90
20740;DHT22;10530;49.968;19.844;2023-02-13T03:23:10;2.20;99.90
20740;DHT22;10530;49.968;19.844;2023-02-13T03:28:31;2.30;99.90
20740;DHT22;10530;49.968;19.844;2023-02-13T03:34:11;2.30;99.90
20740;DHT22;10530;49.968;19.844;2023-02-13T03:45:01;2.20;99.90
20740;DHT22;10530;49.968;19.844;2023-02-13T03:50:25;2.20;99.90
20740;DHT22;10530;49.968;19.844;2023-02-13T03:55:33;2.20;99.90
20740;DHT22;10530;49.968;19.844;2023-02-13T04:00:58;2.20;99.90
20740;DHT22;10530;49.968;19.844;2023-02-13T04:06:36;2.20;99.90
20740;DHT22;10530;49.968;19.844;2023-02-13T04:17:42;2.30;99.90
20740;DHT22;10530;49.968;19.844;2023-02-13T04:22:47;2.30;99.90
20740;DHT22;10530;49.968;19.844;2023-02-13T04:27:50;2.30;99.90
20740;DHT22;10530;49.968;19.844;2023-02-13T04:32:53;2.30;99.90
20740;DHT22;10530;49.968;19.844;2023-02-13T04:37:55;2.30;99.90
20740;DHT22;10530;49.968;19.844;2023-02-13T04:42:58;2.30;99.90
20740;DHT22;10530;49.968;19.844;2023-02-13T04:48:01;2.30;99.90
20740;DHT22;10530;49.968;19.844;2023-02-13T04:53:04;2.30;99.90
20740;DHT22;10530;49.968;19.844;2023-02-13T04:58:07;2.30;99.90
20740;DHT22;10530;49.968;19.844;2023-02-13T05:03:12;2.20;99.90
20740;DHT22;10530;49.968;19.844;2023-02-13T05:08:15;2.20;99.90
20740;DHT22;10530;49.968;19.844;2023-02-13T05:13:18;2.30;99.90
20740;DHT22;10530;49.968;19.844;2023-02-13T05:18:23;2.50;99.90
20740;DHT22;10530;49.968;19.844;2023-02-13T05:23:26;2.60;99.90
20740;DHT22;10530;49.968;19.844;2023-02-13T05:28:28;2.70;99.90
20740;DHT22;10530;49.968;19.844;2023-02-13T05:33:50;2.80;99.90
20740;DHT22;10530;49.968;19.844;2023-02-13T05:38:53;2.80;99.90
20740;DHT22;10530;49.968;19.844;2023-02-13T05:43:56;2.90;99.90
20740;DHT22;10530;49.968;19.844;2023-02-13T05:48:59;2.90;99.90
20740;DHT22;10530;49.968;19.844;2023-02-13T05:54:05;3.00;99.90
20740;DHT22;10530;49.968;19.844;2023-02-13T05:59:08;3.00;99.90
20740;DHT22;10530;49.968;19.844;2023-02-13T06:04:11;3.00;99.90
20740;DHT22;10530;49.968;19.844;2023-02-13T06:09:13;3.00;99.90
20740;DHT22;10530;49.968;19.844;2023-02-13T06:14:17;3.10;99.90
20740;DHT22;10530;49.968;19.844;2023-02-13T06:19:20;3.20;99.90
20740;DHT22;10530;49.968;19.844;2023-02-13T06:24:22;3.20;99.90
20740;DHT22;10530;49.968;19.844;2023-02-13T06:29:25;3.30;99.90
20740;DHT22;10530;49.968;19.844;2023-02-13T06:34:28;3.40;99.90
20740;DHT22;10530;49.968;19.844;2023-02-13T06:39:31;3.50;99.90
20740;DHT22;10530;49.968;19.844;2023-02-13T06:44:34;3.50;99.90
20740;DHT22;10530;49.968;19.844;2023-02-13T06:49:37;3.60;99.90
20740;DHT22;10530;49.968;19.844;2023-02-13T06:54:40;3.70;99.90
20740;DHT22;10530;49.968;19.844;2023-02-13T06:59:49;3.80;99.90
20740;DHT22;10530;49.968;19.844;2023-02-13T07:04:52;3.90;99.90
20740;DHT22;10530;49.968;19.844;2023-02-13T07:09:55;3.90;99.90
20740;DHT22;10530;49.968;19.844;2023-02-13T07:14:58;4.00;99.90
20740;DHT22;10530;49.968;19.844;2023-02-13T07:20:01;4.10;99.90
20740;DHT22;10530;49.968;19.844;2023-02-13T07:25:04;4.10;99.90
20740;DHT22;10530;49.968;19.844;2023-02-13T07:30:07;4.20;99.90
20740;DHT22;10530;49.968;19.844;2023-02-13T07:35:10;4.20;99.90
20740;DHT22;10530;49.968;19.844;2023-02-13T07:40:13;4.20;99.90
20740;DHT22;10530;49.968;19.844;2023-02-13T07:45:16;4.30;99.90
20740;DHT22;10530;49.968;19.844;2023-02-13T07:50:19;4.40;99.90
20740;DHT22;10530;49.968;19.844;2023-02-13T07:55:22;4.40;99.90
20740;DHT22;10530;49.968;19.844;2023-02-13T08:00:25;4.40;99.90
20740;DHT22;10530;49.968;19.844;2023-02-13T08:05:30;4.40;99.90
20740;DHT22;10530;49.968;19.844;2023-02-13T08:10:34;4.50;99.90
20740;DHT22;10530;49.968;19.844;2023-02-13T08:15:55;4.70;99.90
20740;DHT22;10530;49.968;19.844;2023-02-13T08:21:01;4.90;99.90
20740;DHT22;10530;49.968;19.844;2023-02-13T08:26:04;5.10;99.90
20740;DHT22;10530;49.968;19.844;2023-02-13T08:31:11;5.20;99.90
20740;DHT22;10530;49.968;19.844;2023-02-13T08:36:14;5.70;99.90
20740;DHT22;10530;49.968;19.844;2023-02-13T08:41:17;5.90;99.90
20740;DHT22;10530;49.968;19.844;2023-02-13T08:46:22;6.10;99.90
20740;DHT22;10530;49.968;19.844;2023-02-13T08:51:25;6.20;99.90
20740;DHT22;10530;49.968;19.844;2023-02-13T08:56:28;6.30;99.90
20740;DHT22;10530;49.968;19.844;2023-02-13T09:01:30;6.50;99.90
20740;DHT22;10530;49.968;19.844;2023-02-13T09:06:34;6.60;99.90
20740;DHT22;10530;49.968;19.844;2023-02-13T09:11:37;6.60;99.90
20740;DHT22;10530;49.968;19.844;2023-02-13T09:16:40;6.60;99.90
20740;DHT22;10530;49.968;19.844;2023-02-13T09:21:42;6.70;99.90
20740;DHT22;10530;49.968;19.844;2023-02-13T09:26:45;7.30;99.90
20740;DHT22;10530;49.968;19.844;2023-02-13T09:31:48;7.10;99.90
20740;DHT22;10530;49.968;19.844;2023-02-13T09:36:53;7.20;99.90
20740;DHT22;10530;49.968;19.844;2023-02-13T09:41:56;7.10;99.90
20740;DHT22;10530;49.968;19.844;2023-02-13T09:47:08;7.00;99.90
20740;DHT22;10530;49.968;19.844;2023-02-13T09:52:15;7.70;99.90
20740;DHT22;10530;49.968;19.844;2023-02-13T09:57:33;8.00;99.90
20740;DHT22;10530;49.968;19.844;2023-02-13T10:14:17;7.70;99.90
20740;DHT22;10530;49.968;19.844;2023-02-13T10:24:53;7.10;99.90
20740;DHT22;10530;49.968;19.844;2023-02-13T10:30:07;7.50;99.90
20740;DHT22;10530;49.968;19.844;2023-02-13T10:35:30;7.60;99.90
20740;DHT22;10530;49.968;19.844;2023-02-13T10:40:38;7.60;99.90
20740;DHT22;10530;49.968;19.844;2023-02-13T10:45:54;7.50;99.90
20740;DHT22;10530;49.968;19.844;2023-02-13T11:07:04;7.00;99.90
20740;DHT22;10530;49.968;19.844;2023-02-13T11:12:39;6.90;99.90
20740;DHT22;10530;49.968;19.844;2023-02-13T11:17:41;7.10;99.90
20740;DHT22;10530;49.968;19.844;2023-02-13T11:22:45;7.30;99.90
20740;DHT22;10530;49.968;19.844;2023-02-13T11:27:50;7.40;99.90
20740;DHT22;10530;49.968;19.844;2023-02-13T11:33:06;7.60;99.90
20740;DHT22;10530;49.968;19.844;2023-02-13T11:43:30;8.20;99.90
20740;DHT22;10530;49.968;19.844;2023-02-13T11:48:36;7.60;99.90
20740;DHT22;10530;49.968;19.844;2023-02-13T11:53:40;7.40;99.90
20740;DHT22;10530;49.968;19.844;2023-02-13T11:58:42;7.30;99.90
20740;DHT22;10530;49.968;19.844;2023-02-13T12:04:12;7.30;99.90
20740;DHT22;10530;49.968;19.844;2023-02-13T12:09:18;7.30;99.90
20740;DHT22;10530;49.968;19.844;2023-02-13T12:14:26;7.20;99.90
20740;DHT22;10530;49.968;19.844;2023-02-13T12:19:37;7.00;99.90
20740;DHT22;10530;49.968;19.844;2023-02-13T12:36:22;7.10;99.90
20740;DHT22;10530;49.968;19.844;2023-02-13T12:57:39;7.30;99.90
20740;DHT22;10530;49.968;19.844;2023-02-13T13:03:12;7.30;99.90
20740;DHT22;10530;49.968;19.844;2023-02-13T13:19:26;7.40;99.90
20740;DHT22;10530;49.968;19.844;2023-02-13T13:30:41;7.10;99.90
20740;DHT22;10530;49.968;19.844;2023-02-13T13:52:21;6.40;99.90
20740;DHT22;10530;49.968;19.844;2023-02-13T13:57:26;6.30;99.90
20740;DHT22;10530;49.968;19.844;2023-02-13T14:02:45;6.40;99.90
20740;DHT22;10530;49.968;19.844;2023-02-13T14:07:52;6.40;99.90
20740;DHT22;10530;49.968;19.844;2023-02-13T14:23:21;6.30;99.90
20740;DHT22;10530;49.968;19.844;2023-02-13T14:28:28;6.30;99.90
20740;DHT22;10530;49.968;19.844;2023-02-13T14:33:31;6.30;99.90
20740;DHT22;10530;49.968;19.844;2023-02-13T14:38:35;6.20;99.90
20740;DHT22;10530;49.968;19.844;2023-02-13T14:43:49;6.20;99.90
20740;DHT22;10530;49.968;19.844;2023-02-13T14:49:13;6.10;99.90
20740;DHT22;10530;49.968;19.844;2023-02-13T14:59:34;6.40;99.90
20740;DHT22;10530;49.968;19.844;2023-02-13T15:04:44;6.10;99.90
20740;DHT22;10530;49.968;19.844;2023-02-13T15:09:59;6.00;99.90
20740;DHT22;10530;49.968;19.844;2023-02-13T15:15:33;6.00;99.90
20740;DHT22;10530;49.968;19.844;2023-02-13T15:20:40;6.00;99.90
20740;DHT22;10530;49.968;19.844;2023-02-13T15:25:44;6.00;99.90
20740;DHT22;10530;49.968;19.844;2023-02-13T15:31:03;5.90;99.90
20740;DHT22;10530;49.968;19.844;2023-02-13T15:36:12;5.90;99.90
20740;DHT22;10530;49.968;19.844;2023-02-13T15:41:28;5.90;99.90
20740;DHT22;10530;49.968;19.844;2023-02-13T15:46:35;5.80;99.90
20740;DHT22;10530;49.968;19.844;2023-02-13T15:51:40;5.80;99.90
20740;DHT22;10530;49.968;19.844;2023-02-13T15:56:44;5.70;99.90
20740;DHT22;10530;49.968;19.844;2023-02-13T16:01:48;5.70;99.90
20740;DHT22;10530;49.968;19.844;2023-02-13T16:06:54;5.60;99.90
20740;DHT22;10530;49.968;19.844;2023-02-13T16:12:26;5.40;99.90
20740;DHT22;10530;49.968;19.844;2023-02-13T16:17:31;5.40;99.90
20740;DHT22;10530;49.968;19.844;2023-02-13T16:27:58;5.30;99.90
20740;DHT22;10530;49.968;19.844;2023-02-13T16:38:30;5.20;99.90
20740;DHT22;10530;49.968;19.844;2023-02-13T16:43:39;5.20;99.90
20740;DHT22;10530;49.968;19.844;2023-02-13T16:48:44;5.20;99.90
20740;DHT22;10530;49.968;19.844;2023-02-13T16:54:02;5.20;99.90
20740;DHT22;10530;49.968;19.844;2023-02-13T17:04:26;5.10;99.90
20740;DHT22;10530;49.968;19.844;2023-02-13T17:09:29;5.10;99.90
20740;DHT22;10530;49.968;19.844;2023-02-13T17:14:32;5.00;99.90
20740;DHT22;10530;49.968;19.844;2023-02-13T17:19:35;4.90;99.90
20740;DHT22;10530;49.968;19.844;2023-02-13T17:24:38;4.80;99.90
20740;DHT22;10530;49.968;19.844;2023-02-13T17:29:41;4.80;99.90
20740;DHT22;10530;49.968;19.844;2023-02-13T17:34:44;4.80;99.90
20740;DHT22;10530;49.968;19.844;2023-02-13T17:39:50;4.70;99.90
20740;DHT22;10530;49.968;19.844;2023-02-13T17:44:54;4.60;99.90
20740;DHT22;10530;49.968;19.844;2023-02-13T17:49:58;4.50;99.90
20740;DHT22;10530;49.968;19.844;2023-02-13T18:00:20;4.40;99.90
20740;DHT22;10530;49.968;19.844;2023-02-13T18:05:22;4.40;99.90
20740;DHT22;10530;49.968;19.844;2023-02-13T18:10:27;4.30;99.90
20740;DHT22;10530;49.968;19.844;2023-02-13T18:15:31;4.30;99.90
20740;DHT22;10530;49.968;19.844;2023-02-13T18:20:35;4.30;99.90
20740;DHT22;10530;49.968;19.844;2023-02-13T18:25:39;4.30;99.90
20740;DHT22;10530;49.968;19.844;2023-02-13T18:30:42;4.20;99.90
20740;DHT22;10530;49.968;19.844;2023-02-13T18:35:45;4.20;99.90
20740;DHT22;10530;49.968;19.844;2023-02-13T18:40:48;4.20;99.90
20740;DHT22;10530;49.968;19.844;2023-02-13T18:45:50;4.30;99.90
20740;DHT22;10530;49.968;19.844;2023-02-13T18:50:53;4.30;99.90
20740;DHT22;10530;49.968;19.844;2023-02-13T18:56:04;4.30;99.90
20740;DHT22;10530;49.968;19.844;2023-02-13T19:01:09;4.30;99.90
20740;DHT22;10530;49.968;19.844;2023-02-13T19:06:14;4.40;99.90
20740;DHT22;10530;49.968;19.844;2023-02-13T19:11:19;4.40;99.90
20740;DHT22;10530;49.968;19.844;2023-02-13T19:16:25;4.40;99.90
20740;DHT22;10530;49.968;19.844;2023-02-13T19:21:29;4.50;99.90
20740;DHT22;10530;49.968;19.844;2023-02-13T19:26:34;4.50;99.90
20740;DHT22;10530;49.968;19.844;2023-02-13T19:31:37;4.50;99.90
20740;DHT22;10530;49.968;19.844;2023-02-13T19:36:40;4.50;99.90
20740;DHT22;10530;49.968;19.844;2023-02-13T19:41:42;4.50;99.90
20740;DHT22;10530;49.968;19.844;2023-02-13T19:46:46;4.50;99.90
20740;DHT22;10530;49.968;19.844;2023-02-13T19:51:49;4.50;99.90
20740;DHT22;10530;49.968;19.844;2023-02-13T19:56:52;4.50;99.90
20740;DHT22;10530;49.968;19.844;2023-02-13T20:01:56;4.50;99.90
20740;DHT22;10530;49.968;19.844;2023-02-13T20:06:59;4.50;99.90
20740;DHT22;10530;49.968;19.844;2023-02-13T20:12:02;4.50;99.90
20740;DHT22;10530;49.968;19.844;2023-02-13T20:17:04;4.50;99.90
20740;DHT22;10530;49.968;19.844;2023-02-13T20:22:07;4.50;99.90
20740;DHT22;10530;49.968;19.844;2023-02-13T20:27:10;4.50;99.90
20740;DHT22;10530;49.968;19.844;2023-02-13T20:32:13;4.60;99.90
20740;DHT22;10530;49.968;19.844;2023-02-13T20:37:16;4.60;99.90
20740;DHT22;10530;49.968;19.844;2023-02-13T20:42:19;4.60;99.90
20740;DHT22;10530;49.968;19.844;2023-02-13T20:47:22;4.60;99.90
20740;DHT22;10530;49.968;19.844;2023-02-13T20:52:25;4.60;99.90
20740;DHT22;10530;49.968;19.844;2023-02-13T20:57:28;4.60;99.90
20740;DHT22;10530;49.968;19.844;2023-02-13T21:02:30;4.50;99.90
20740;DHT22;10530;49.968;19.844;2023-02-13T21:07:33;4.50;99.90
20740;DHT22;10530;49.968;19.844;2023-02-13T21:12:36;4.50;99.90
20740;DHT22;10530;49.968;19.844;2023-02-13T21:17:39;4.50;99.90
20740;DHT22;10530;49.968;19.844;2023-02-13T21:22:43;4.50;99.90
20740;DHT22;10530;49.968;19.844;2023-02-13T21:27:46;4.50;99.90
20740;DHT22;10530;49.968;19.844;2023-02-13T21:32:49;4.40;99.90
20740;DHT22;10530;49.968;19.844;2023-02-13T21:37:52;4.40;99.90
20740;DHT22;10530;49.968;19.844;2023-02-13T21:42:56;4.40;99.90
20740;DHT22;10530;49.968;19.844;2023-02-13T21:47:59;4.40;99.90
20740;DHT22;10530;49.968;19.844;2023-02-13T21:53:02;4.40;99.90
20740;DHT22;10530;49.968;19.844;2023-02-13T21:58:05;4.40;99.90
20740;DHT22;10530;49.968;19.844;2023-02-13T22:03:08;4.40;99.90
20740;DHT22;10530;49.968;19.844;2023-02-13T22:08:11;4.40;99.90
20740;DHT22;10530;49.968;19.844;2023-02-13T22:13:14;4.50;99.90
20740;DHT22;10530;49.968;19.844;2023-02-13T22:18:17;4.50;99.90
20740;DHT22;10530;49.968;19.844;2023-02-13T22:23:20;4.50;99.90
20740;DHT22;10530;49.968;19.844;2023-02-13T22:28:23;4.40;99.90
20740;DHT22;10530;49.968;19.844;2023-02-13T22:33:27;4.40;99.90
20740;DHT22;10530;49.968;19.844;2023-02-13T22:38:34;4.40;99.90
20740;DHT22;10530;49.968;19.844;2023-02-13T22:43:38;4.40;99.90
20740;DHT22;10530;49.968;19.844;2023-02-13T22:48:42;4.40;99.90
20740;DHT22;10530;49.968;19.844;2023-02-13T22:53:48;4.40;99.90
20740;DHT22;10530;49.968;19.844;2023-02-13T22:58:51;4.40;99.90
20740;DHT22;10530;49.968;19.844;2023-02-13T23:03:55;4.40;99.90
20740;DHT22;10530;49.968;19.844;2023-02-13T23:08:58;4.40;99.90
20740;DHT22;10530;49.968;19.844;2023-02-13T23:14:01;4.40;99.90
20740;DHT22;10530;49.968;19.844;2023-02-13T23:19:04;4.40;99.90
20740;DHT22;10530;49.968;19.844;2023-02-13T23:24:07;4.40;99.90
20740;DHT22;10530;49.968;19.844;2023-02-13T23:29:10;4.30;99.90
20740;DHT22;10530;49.968;19.844;2023-02-13T23:34:13;4.30;99.90
20740;DHT22;10530;49.968;19.844;2023-02-13T23:39:16;4.30;99.90
20740;DHT22;10530;49.968;19.844;2023-02-13T23:44:18;4.30;99.90
20740;DHT22;10530;49.968;19.844;2023-02-13T23:49:21;4.20;99.90
20740;DHT22;10530;49.968;19.844;2023-02-13T23:54:24;4.20;99.90
20740;DHT22;10530;49.968;19.844;2023-02-13T23:59:27;4.20;99.90
